Airfield :
LOGIN :

Register | Disclaimer

   EN    FR    IT 

 










Legend :    VFR   Marginal VFR   IFR   Intensive IFR   Very Intensive IFR
Visi :
Ceiling :
>= 8 km
>= 3000ft
5 to 8 km
1000 to 3000 ft
1500m to 5 km
500 to 1000 ft
800 to 1500m
200 to 500 ft
< 800m
< 200 ft
Symbols :   Thunderstorms  Fog  Heavy snow  Heavy precipitations  Wind > 20 kt
SIGMETs :     Misc.  Thunderstorms  Icing  Turbulence  Mountain Waves  Volcanic Ashes







- Airport Elevation : 53 ft
- IATA code : HAM


EDDH - Hamburg

CURRENT METAR :
  • 231950Z 07007KT 9999 BKN032 06/02 Q1025 NOSIG

EXPIRED METARs :
  • 231920Z 07009KT 9999 BKN030 06/02 Q1024 NOSIG
  • 231850Z 08009KT 9999 BKN028 07/02 Q1024 NOSIG
  • 231820Z 09009KT 050V110 9999 BKN030 07/02 Q1024 NOSIG
  • 231750Z 08009KT 9999 BKN030 07/02 Q1023 NOSIG
  • 231720Z 07010KT 040V100 9999 BKN030 07/02 Q1023 NOSIG

TAF TAF EDDH
Valid from the 23 at 18:00 until the 25 at 00:00 UTC


231700Z 2318/2424 05009KT 9999 BKN030
BECMG 2320/2322 02004KT
PROB30
TEMPO 2402/2407 2000 BCFG
No reported NOTAMs for that airfield.



MET'MAP, your aeronautical weather chart ! - Copyright ORBIFLY December 2007 - Disclaimer

ORBIFLY MET'MAP TEAM :

Programming & Development : Alexandra Zaïnal
Concept & Development : Baudouin d'Aumeries
Co-Development & Prog : Marc-Olivier Méhu
Technical & hardware support : Manuel Goepfert

Contact : metmap@orbifly.com




SOURCES & CREDITS :

   NOAA